Terminal Aerodrome Forecast
Issued by NWS Charleston, WV

Current Version | Previous Version | Graphics & Text | Print | Product List | Glossary On
Versions: 1 2 3 4 5 6 7 8 9 10 11 12 13 14 15 16 17 18 19 20 21
000
FTUS41 KRLX 012100 AAA
TAFBKW
TAF AMD
KBKW 012131Z 0122/0218 34008KT P6SM BKN015
     FM012200 34008KT P6SM FEW020
     FM020900 00000KT 3SM BR SCT002 SCT250
     FM021500 36006KT P6SM SCT250=

USA.gov is the U.S. government's official web portal to all federal, state and local government web resources and services.